Time;durP1;ratioP1;P1;durP2;ratioP2;P2;SDS_P1;SDS_P2;PMS_P1;PMS_P2;Temp;Humidity;BMP_temperature;BMP_pressure;BME280_temperature;BME280_humidity;BME280_pressure;Samples;Min_cycle;Max_cycle;Signal;HPM_P1;HPM_P2
2023/09/12 00:01:41;;;;;;;70.53;45.70;;;17.90;99.90;;;;;;5157244;27;20094;-21
2023/09/12 00:04:06;;;;;;;76.80;47.47;;;17.90;99.90;;;;;;5157769;27;20392;-21
2023/09/12 00:06:32;;;;;;;70.32;43.40;;;17.80;99.90;;;;;;5157206;27;20035;-21
2023/09/12 00:08:58;;;;;;;69.90;44.80;;;17.80;99.90;;;;;;5157672;27;20078;-21
2023/09/12 00:11:25;;;;;;;84.45;51.30;;;17.80;99.90;;;;;;5155846;27;20047;-21
2023/09/12 00:13:51;;;;;;;82.53;49.45;;;17.90;99.90;;;;;;5157059;27;20050;-21
2023/09/12 00:16:17;;;;;;;82.57;48.22;;;17.80;99.90;;;;;;5156959;27;20465;-21
2023/09/12 00:18:43;;;;;;;81.68;48.08;;;17.80;99.90;;;;;;5138691;27;20068;-21
2023/09/12 00:21:09;;;;;;;79.63;46.70;;;17.70;99.90;;;;;;5156826;27;20042;-21
2023/09/12 00:23:35;;;;;;;91.43;49.72;;;17.70;99.90;;;;;;5156851;27;20038;-21
2023/09/12 00:26:01;;;;;;;87.88;51.17;;;17.80;99.90;;;;;;5156773;27;20046;-21
2023/09/12 00:28:27;;;;;;;115.00;57.40;;;17.70;99.90;;;;;;5156747;27;20485;-21
2023/09/12 00:30:53;;;;;;;82.20;47.55;;;17.60;99.90;;;;;;5156612;27;20099;-21
2023/09/12 00:33:19;;;;;;;83.72;48.08;;;17.70;99.90;;;;;;5157252;27;20392;-21
2023/09/12 00:35:45;;;;;;;82.32;49.20;;;17.60;99.90;;;;;;5154541;27;20046;-21
2023/09/12 00:38:11;;;;;;;102.00;52.20;;;17.70;99.90;;;;;;5155342;27;20042;-21
2023/09/12 00:40:37;;;;;;;108.18;51.70;;;17.60;99.90;;;;;;5138336;27;20046;-21
2023/09/12 00:43:03;;;;;;;97.70;49.33;;;17.50;99.90;;;;;;5138074;27;20426;-21
2023/09/12 00:45:29;;;;;;;89.03;47.00;;;17.40;99.90;;;;;;5156507;27;20045;-21
2023/09/12 00:47:57;;;;;;;97.30;48.13;;;17.40;99.90;;;;;;5155085;27;20463;-21
2023/09/12 00:50:25;;;;;;;92.25;46.42;;;17.30;99.90;;;;;;5154830;27;20049;-21
2023/09/12 00:52:51;;;;;;;124.20;55.17;;;17.30;99.90;;;;;;5155257;27;20038;-21
2023/09/12 00:55:16;;;;;;;118.82;51.88;;;17.30;99.90;;;;;;5156089;27;20047;-21
2023/09/12 00:57:43;;;;;;;167.10;58.92;;;17.20;99.90;;;;;;5154938;27;20071;-21
2023/09/12 01:00:12;;;;;;;92.80;49.88;;;17.20;99.90;;;;;;5156095;27;20484;-21
2023/09/12 01:02:42;;;;;;;98.60;51.10;;;17.10;99.90;;;;;;5155138;27;20053;-21
2023/09/12 01:05:09;;;;;;;112.70;51.72;;;17.00;99.90;;;;;;5155775;27;20492;-21
2023/09/12 01:07:36;;;;;;;97.07;50.28;;;16.90;99.90;;;;;;5155630;27;20043;-21
2023/09/12 01:10:03;;;;;;;81.88;45.70;;;16.90;99.90;;;;;;5155878;27;20046;-21
2023/09/12 01:12:29;;;;;;;137.77;57.60;;;16.80;99.90;;;;;;5156009;27;20054;-21
2023/09/12 01:14:55;;;;;;;130.75;54.13;;;16.90;99.90;;;;;;5155945;27;20043;-21
2023/09/12 01:17:22;;;;;;;118.53;54.72;;;16.80;99.90;;;;;;5154566;27;20039;-21
2023/09/12 01:19:48;;;;;;;107.20;50.72;;;17.00;99.90;;;;;;5155779;27;20053;-21
2023/09/12 01:22:35;;;;;;;135.52;59.00;;;16.90;99.90;;;;;;5154503;27;20047;-21
2023/09/12 01:25:23;;;;;;;150.98;57.40;;;17.00;99.90;;;;;;5155616;27;20131;-21
2023/09/12 01:27:51;;;;;;;128.60;54.00;;;16.80;99.90;;;;;;5155467;27;20049;-21
2023/09/12 01:30:20;;;;;;;96.32;46.65;;;16.90;99.90;;;;;;5155496;27;20051;-21
2023/09/12 01:32:47;;;;;;;111.10;52.70;;;16.80;99.90;;;;;;5155528;27;20107;-21
2023/09/12 01:35:13;;;;;;;126.90;56.80;;;16.70;99.90;;;;;;5156302;27;20038;-21
2023/09/12 01:37:38;;;;;;;136.80;58.05;;;16.70;99.90;;;;;;5155446;27;20045;-21
2023/09/12 01:40:06;;;;;;;176.95;63.00;;;16.70;99.90;;;;;;5155375;27;20388;-21
2023/09/12 01:42:43;;;;;;;172.30;64.85;;;16.80;99.90;;;;;;5155367;27;20121;-21
2023/09/12 01:45:16;;;;;;;158.10;64.03;;;16.70;99.90;;;;;;5154416;27;20080;-21
2023/09/12 01:47:42;;;;;;;171.90;62.97;;;16.80;99.90;;;;;;5154937;27;20046;-21
2023/09/12 01:50:12;;;;;;;128.07;58.38;;;16.90;99.90;;;;;;5137014;27;20507;-21
2023/09/12 01:52:40;;;;;;;174.48;68.63;;;17.00;99.90;;;;;;5154909;27;20384;-21
2023/09/12 01:55:09;;;;;;;171.80;68.68;;;17.00;99.90;;;;;;5155192;27;20061;-21
2023/09/12 01:57:35;;;;;;;143.95;61.17;;;16.90;99.90;;;;;;5153724;27;20550;-21
2023/09/12 02:00:01;;;;;;;138.13;57.60;;;16.90;99.90;;;;;;5136972;27;20047;-21
2023/09/12 02:02:27;;;;;;;153.93;62.35;;;17.00;99.90;;;;;;5155101;27;20053;-21
2023/09/12 02:05:18;;;;;;;151.25;64.13;;;17.00;99.90;;;;;;5155410;27;20125;-21
2023/09/12 02:07:45;;;;;;;202.55;69.47;;;16.90;99.90;;;;;;5154169;27;20412;-21
2023/09/12 02:10:11;;;;;;;197.98;63.60;;;16.90;99.90;;;;;;5153639;27;20046;-21
2023/09/12 02:12:37;;;;;;;264.55;57.75;;;16.80;99.90;;;;;;5155068;27;20035;-21
2023/09/12 02:15:03;;;;;;;388.52;53.83;;;16.70;99.90;;;;;;5155367;27;20062;-21
2023/09/12 02:17:29;;;;;;;712.85;68.43;;;16.40;99.90;;;;;;5155367;27;20085;-21
2023/09/12 02:19:55;;;;;;;742.45;72.78;;;16.40;99.90;;;;;;5137172;27;20372;-21
2023/09/12 02:22:20;;;;;;;506.58;50.78;;;16.30;99.90;;;;;;5153819;27;20046;-21
2023/09/12 02:24:46;;;;;;;604.63;54.45;;;16.30;99.90;;;;;;5155747;27;20050;-21
2023/09/12 02:27:12;;;;;;;439.70;55.05;;;16.20;99.90;;;;;;5154904;27;20043;-21
2023/09/12 02:29:39;;;;;;;951.95;76.20;;;16.10;99.90;;;;;;5153620;27;20035;-21
2023/09/12 02:32:05;;;;;;;565.22;57.88;;;16.10;99.90;;;;;;5154836;27;20512;-20
2023/09/12 02:34:32;;;;;;;1048.53;86.72;;;16.10;99.90;;;;;;5154918;27;20050;-21
2023/09/12 02:36:57;;;;;;;628.83;58.45;;;16.10;99.90;;;;;;5154769;27;20039;-21
2023/09/12 02:39:23;;;;;;;691.53;63.05;;;16.10;99.90;;;;;;5154333;27;20412;-21
2023/09/12 02:41:49;;;;;;;590.63;60.05;;;16.10;99.90;;;;;;5154593;27;20043;-20
2023/09/12 02:44:15;;;;;;;482.70;46.92;;;16.00;99.90;;;;;;5155478;27;20053;-20
2023/09/12 02:46:41;;;;;;;823.80;78.78;;;15.90;99.90;;;;;;5154794;27;20430;-21
2023/09/12 02:49:06;;;;;;;544.40;56.13;;;15.90;99.90;;;;;;5154772;27;20043;-21
2023/09/12 02:51:32;;;;;;;913.22;87.93;;;16.00;99.90;;;;;;5153556;27;20496;-21
2023/09/12 02:53:58;;;;;;;465.77;56.92;;;15.90;99.90;;;;;;5153560;27;20046;-21
2023/09/12 02:56:23;;;;;;;504.15;64.07;;;15.80;99.90;;;;;;5154547;27;20058;-21
2023/09/12 02:58:49;;;;;;;353.55;52.90;;;15.80;99.90;;;;;;5153827;27;20042;-21
2023/09/12 03:01:20;;;;;;;330.13;49.75;;;15.70;99.90;;;;;;5157136;27;20054;-21
2023/09/12 03:03:50;;;;;;;378.60;56.65;;;15.70;99.90;;;;;;5158428;27;20552;-21
2023/09/12 03:06:16;;;;;;;176.55;40.50;;;15.60;99.90;;;;;;5157393;27;20472;-21
2023/09/12 03:08:43;;;;;;;515.50;63.83;;;15.60;99.90;;;;;;5157044;27;20078;-21
2023/09/12 03:11:09;;;;;;;633.58;68.95;;;15.50;99.90;;;;;;5158196;27;20121;-21
2023/09/12 03:13:36;;;;;;;823.47;91.65;;;15.40;99.90;;;;;;5156904;27;20046;-20
2023/09/12 03:16:02;;;;;;;808.33;86.15;;;15.30;99.90;;;;;;5158689;27;20388;-21
2023/09/12 03:18:27;;;;;;;908.70;89.53;;;15.30;99.90;;;;;;5158630;27;20045;-21
2023/09/12 03:20:53;;;;;;;602.30;65.53;;;15.40;99.90;;;;;;5158375;27;20034;-21
2023/09/12 03:23:22;;;;;;;887.72;87.32;;;15.40;99.90;;;;;;5157942;27;20484;-21
2023/09/12 03:25:47;;;;;;;593.35;65.47;;;15.50;99.90;;;;;;5158009;27;20042;-21
2023/09/12 03:28:13;;;;;;;801.38;77.40;;;15.40;99.90;;;;;;5157851;27;20660;-21
2023/09/12 03:30:39;;;;;;;970.38;89.20;;;15.40;99.90;;;;;;5157462;27;20043;-21
2023/09/12 03:33:05;;;;;;;752.88;81.65;;;15.50;99.90;;;;;;5157764;27;20042;-21
2023/09/12 03:35:34;;;;;;;677.33;75.72;;;15.50;99.90;;;;;;5156766;27;20046;-21
2023/09/12 03:38:00;;;;;;;1270.97;126.18;;;15.60;99.90;;;;;;5157653;27;20155;-21
2023/09/12 03:40:29;;;;;;;344.42;56.95;;;15.60;99.90;;;;;;5157661;27;20092;-21
2023/09/12 03:42:55;;;;;;;467.45;68.22;;;15.50;99.90;;;;;;5157669;27;20082;-21
2023/09/12 03:45:20;;;;;;;444.42;63.65;;;15.40;99.90;;;;;;5139177;27;20082;-21
2023/09/12 03:47:46;;;;;;;1149.47;109.72;;;15.40;99.90;;;;;;5157835;27;20049;-21
2023/09/12 03:50:13;;;;;;;454.40;63.58;;;15.40;99.90;;;;;;5156206;27;20476;-21
2023/09/12 03:52:39;;;;;;;572.80;66.55;;;15.40;99.90;;;;;;5157026;27;20051;-21
2023/09/12 03:55:05;;;;;;;510.13;70.35;;;15.40;99.90;;;;;;5156716;27;20051;-21
2023/09/12 03:57:31;;;;;;;433.23;65.50;;;15.60;99.90;;;;;;5156585;27;20187;-21
2023/09/12 03:59:57;;;;;;;422.90;67.20;;;15.60;99.90;;;;;;5156095;27;20050;-21
2023/09/12 04:02:23;;;;;;;729.20;90.32;;;15.70;99.90;;;;;;5157746;27;20043;-21
2023/09/12 04:04:49;;;;;;;968.40;101.78;;;15.60;99.90;;;;;;5155909;27;20090;-21
2023/09/12 04:07:15;;;;;;;747.63;93.53;;;15.80;99.90;;;;;;5138979;27;20045;-21
2023/09/12 04:09:40;;;;;;;871.60;111.07;;;15.90;99.90;;;;;;5155703;27;20049;-21
2023/09/12 04:12:08;;;;;;;808.90;102.25;;;16.10;99.90;;;;;;5157211;27;20043;-21
2023/09/12 04:14:34;;;;;;;771.08;99.35;;;16.20;99.90;;;;;;5155813;27;20437;-21
2023/09/12 04:17:00;;;;;;;637.05;92.85;;;16.50;99.90;;;;;;5156949;27;20130;-21
2023/09/12 04:19:26;;;;;;;733.28;100.57;;;16.50;99.90;;;;;;5156827;27;20477;-20
2023/09/12 04:21:51;;;;;;;838.20;107.97;;;16.60;99.90;;;;;;5139009;27;20054;-21
2023/09/12 04:24:17;;;;;;;617.15;87.15;;;16.60;99.90;;;;;;5155604;27;20129;-21
2023/09/12 04:26:44;;;;;;;778.30;97.85;;;16.60;99.90;;;;;;5138555;27;20038;-21
2023/09/12 04:29:10;;;;;;;667.45;96.55;;;16.70;99.90;;;;;;5138314;27;20050;-21
2023/09/12 04:31:36;;;;;;;868.38;110.38;;;16.60;99.90;;;;;;5155779;27;20527;-21
2023/09/12 04:34:02;;;;;;;756.58;102.95;;;16.80;99.90;;;;;;5138192;27;20100;-21
2023/09/12 04:36:28;;;;;;;659.65;91.38;;;16.60;99.90;;;;;;5155497;27;20082;-21
2023/09/12 04:38:53;;;;;;;552.47;81.95;;;16.80;99.90;;;;;;5121615;27;20222;-21
2023/09/12 04:41:19;;;;;;;655.35;95.25;;;16.80;99.90;;;;;;5156558;27;20535;-21
2023/09/12 04:43:45;;;;;;;908.75;113.50;;;16.70;99.90;;;;;;5155844;27;20356;-21
2023/09/12 04:46:11;;;;;;;539.38;83.78;;;16.70;99.90;;;;;;5157217;27;20133;-21
2023/09/12 04:48:37;;;;;;;543.58;82.25;;;16.90;99.90;;;;;;5156287;27;20135;-21
2023/09/12 04:51:03;;;;;;;504.15;80.13;;;16.80;99.90;;;;;;5155166;27;20042;-21
2023/09/12 04:53:34;;;;;;;538.55;82.13;;;16.80;99.90;;;;;;5155161;27;20042;-21
2023/09/12 04:56:03;;;;;;;630.70;91.75;;;16.80;99.90;;;;;;5155266;27;20055;-21
2023/09/12 04:58:30;;;;;;;636.10;96.97;;;16.80;99.90;;;;;;5156761;27;20125;-20
2023/09/12 05:00:55;;;;;;;829.15;109.07;;;16.90;99.90;;;;;;5156747;27;20038;-21
2023/09/12 05:03:24;;;;;;;747.72;96.53;;;16.80;99.90;;;;;;5154982;27;20035;-21
2023/09/12 05:05:50;;;;;;;468.00;77.53;;;16.90;99.90;;;;;;5155758;27;20400;-21
2023/09/12 05:08:17;;;;;;;834.22;109.03;;;16.90;99.90;;;;;;5155338;27;20042;-21
2023/09/12 05:10:47;;;;;;;870.83;109.20;;;16.90;99.90;;;;;;5155941;27;20103;-21
2023/09/12 05:13:13;;;;;;;730.85;108.32;;;16.70;99.90;;;;;;5155273;27;20039;-21
2023/09/12 05:15:40;;;;;;;783.97;102.45;;;16.70;99.90;;;;;;5156021;27;20058;-21
2023/09/12 05:18:06;;;;;;;502.92;84.10;;;16.80;99.90;;;;;;5155875;27;20050;-21
2023/09/12 05:20:33;;;;;;;811.85;109.95;;;16.60;99.90;;;;;;5155868;27;20175;-21
2023/09/12 05:22:58;;;;;;;597.90;86.28;;;16.80;99.90;;;;;;5156068;27;20057;-21
2023/09/12 05:25:24;;;;;;;1014.88;118.60;;;16.80;99.90;;;;;;5137413;27;20043;-21
2023/09/12 05:27:51;;;;;;;1055.80;122.40;;;16.70;99.90;;;;;;5155770;27;20047;-21
2023/09/12 05:30:16;;;;;;;658.92;90.53;;;16.60;99.90;;;;;;5155940;27;20042;-21
2023/09/12 05:32:42;;;;;;;550.20;86.25;;;16.50;99.90;;;;;;5155696;27;20039;-21
2023/09/12 05:35:08;;;;;;;757.42;95.45;;;16.50;99.90;;;;;;5155224;27;20047;-21
2023/09/12 05:37:34;;;;;;;539.40;85.55;;;16.40;99.90;;;;;;5155594;27;20492;-21
2023/09/12 05:39:59;;;;;;;374.52;72.65;;;16.50;99.90;;;;;;5154168;27;20077;-21
2023/09/12 05:42:25;;;;;;;364.30;71.53;;;16.40;99.90;;;;;;5155459;27;20075;-21
2023/09/12 05:44:54;;;;;;;273.50;65.47;;;16.40;99.90;;;;;;5156123;27;20050;-21
2023/09/12 05:47:20;;;;;;;246.30;65.70;;;16.40;99.90;;;;;;5155424;27;20046;-21
2023/09/12 05:49:46;;;;;;;598.20;88.05;;;16.60;99.90;;;;;;5155376;27;20098;-21
2023/09/12 05:52:12;;;;;;;365.35;66.10;;;16.60;99.90;;;;;;5155687;27;20377;-21
2023/09/12 05:54:40;;;;;;;806.20;104.88;;;16.50;99.90;;;;;;5153938;27;20048;-21
2023/09/12 05:57:06;;;;;;;611.15;91.25;;;16.70;99.90;;;;;;5154699;27;20098;-21
2023/09/12 05:59:34;;;;;;;648.28;89.25;;;16.80;99.90;;;;;;5155317;27;20540;-21
2023/09/12 06:02:00;;;;;;;534.22;81.70;;;16.80;99.90;;;;;;5155321;27;20046;-21
2023/09/12 06:04:25;;;;;;;552.42;89.28;;;16.70;99.90;;;;;;5156071;27;20046;-21
2023/09/12 06:06:51;;;;;;;550.13;88.55;;;16.80;99.90;;;;;;5154988;27;20054;-21
2023/09/12 06:09:17;;;;;;;1113.00;130.32;;;16.90;99.90;;;;;;5154081;27;20053;-21
2023/09/12 06:11:43;;;;;;;502.35;84.97;;;17.00;99.90;;;;;;5153954;27;20401;-21
2023/09/12 06:14:08;;;;;;;434.95;81.18;;;16.90;99.90;;;;;;5119887;27;20130;-21
2023/09/12 06:16:34;;;;;;;657.00;101.40;;;17.00;99.90;;;;;;5155448;27;20046;-21
2023/09/12 06:19:00;;;;;;;483.77;86.70;;;17.10;99.90;;;;;;5155703;27;20448;-21
2023/09/12 06:21:25;;;;;;;488.55;88.43;;;17.10;99.90;;;;;;5154769;27;20057;-21
2023/09/12 06:24:11;;;;;;;545.83;96.72;;;17.20;99.90;;;;;;5155101;27;20089;-21
2023/09/12 06:26:38;;;;;;;675.58;110.65;;;17.30;99.90;;;;;;5137741;27;20386;-21
2023/09/12 06:29:04;;;;;;;532.00;98.40;;;17.50;99.90;;;;;;5155671;27;20477;-21
2023/09/12 06:31:30;;;;;;;568.70;97.25;;;17.40;99.90;;;;;;5155021;27;20086;-21
2023/09/12 06:33:56;;;;;;;475.38;90.22;;;17.50;99.90;;;;;;5155941;27;20038;-22
2023/09/12 06:36:23;;;;;;;366.67;75.97;;;17.40;99.90;;;;;;5159055;27;20047;-21
2023/09/12 06:38:49;;;;;;;624.72;104.90;;;17.40;99.90;;;;;;5159042;27;20093;-21
2023/09/12 06:41:15;;;;;;;419.60;85.70;;;17.40;99.90;;;;;;5157937;27;20046;-21
2023/09/12 06:43:43;;;;;;;338.90;76.90;;;17.60;99.90;;;;;;5158589;27;20042;-22
2023/09/12 06:46:08;;;;;;;432.85;83.78;;;17.50;99.90;;;;;;5157716;27;20046;-21
2023/09/12 06:48:34;;;;;;;437.65;88.07;;;17.60;99.90;;;;;;5158702;27;20512;-21
2023/09/12 06:51:00;;;;;;;323.40;78.15;;;17.90;99.90;;;;;;5158995;27;20043;-21
2023/09/12 06:53:25;;;;;;;436.20;85.45;;;18.00;99.90;;;;;;5158683;27;20050;-21
2023/09/12 06:55:51;;;;;;;240.27;67.80;;;18.00;99.90;;;;;;5158307;27;20404;-21
2023/09/12 06:58:17;;;;;;;296.92;74.30;;;18.20;99.90;;;;;;5157387;27;20138;-21
2023/09/12 07:00:42;;;;;;;265.80;66.13;;;18.20;99.90;;;;;;5157014;27;20050;-21
2023/09/12 07:03:08;;;;;;;261.50;67.85;;;18.10;99.90;;;;;;5159105;27;20167;-21
2023/09/12 07:05:38;;;;;;;237.10;66.00;;;18.20;99.90;;;;;;5140460;27;20464;-21
2023/09/12 07:08:04;;;;;;;208.68;61.60;;;18.20;99.90;;;;;;5158472;27;20046;-21
2023/09/12 07:10:30;;;;;;;188.68;57.95;;;18.10;99.90;;;;;;5158367;27;20126;-21
2023/09/12 07:12:55;;;;;;;186.18;58.42;;;18.00;99.90;;;;;;5140530;27;20480;-21
2023/09/12 07:15:21;;;;;;;223.43;67.50;;;18.10;99.90;;;;;;5158820;27;20042;-21
2023/09/12 07:17:47;;;;;;;245.70;66.72;;;18.00;99.90;;;;;;5157097;27;20043;-21
2023/09/12 07:20:13;;;;;;;200.27;58.15;;;18.10;99.90;;;;;;5156946;27;20080;-21
2023/09/12 07:22:40;;;;;;;272.40;71.78;;;18.10;99.90;;;;;;5158188;27;20043;-22
2023/09/12 07:25:06;;;;;;;201.60;58.97;;;17.90;99.90;;;;;;5156827;27;20129;-21
2023/09/12 07:27:32;;;;;;;162.40;54.10;;;18.00;99.90;;;;;;5158086;27;20395;-22
2023/09/12 07:29:58;;;;;;;257.90;71.90;;;18.00;99.90;;;;;;5156888;27;20043;-21
2023/09/12 07:32:24;;;;;;;294.48;74.45;;;17.90;99.90;;;;;;5157007;27;20095;-21
2023/09/12 07:34:50;;;;;;;193.15;60.13;;;18.00;99.90;;;;;;5158747;27;20133;-22
2023/09/12 07:37:15;;;;;;;199.43;58.20;;;17.80;99.90;;;;;;5157855;27;20396;-21
2023/09/12 07:39:41;;;;;;;158.10;54.95;;;17.90;99.90;;;;;;5140146;27;20049;-21
2023/09/12 07:42:07;;;;;;;175.80;54.97;;;17.90;99.90;;;;;;5156916;27;20059;-22
2023/09/12 07:44:32;;;;;;;219.18;65.78;;;17.80;99.90;;;;;;5157433;27;20047;-22
2023/09/12 07:46:58;;;;;;;228.50;65.97;;;17.80;99.90;;;;;;5157354;27;20047;-21
2023/09/12 07:49:26;;;;;;;200.93;62.25;;;17.80;99.90;;;;;;5157558;27;20403;-22
2023/09/12 07:51:52;;;;;;;185.35;58.45;;;17.90;99.90;;;;;;5157202;27;20481;-22
2023/09/12 07:54:17;;;;;;;196.73;63.60;;;18.00;99.90;;;;;;5158354;27;20074;-22
2023/09/12 07:56:43;;;;;;;175.43;61.15;;;18.00;99.90;;;;;;5156049;27;20508;-21
2023/09/12 07:59:12;;;;;;;186.73;61.38;;;18.10;99.90;;;;;;5139960;27;20382;-22
2023/09/12 08:01:38;;;;;;;154.48;53.20;;;18.30;99.90;;;;;;5157185;27;20502;-22
2023/09/12 08:04:04;;;;;;;181.70;61.50;;;18.30;99.90;;;;;;5156187;27;20693;-22
2023/09/12 08:06:31;;;;;;;175.02;61.40;;;18.40;99.90;;;;;;5156265;27;20046;-22
2023/09/12 08:08:56;;;;;;;160.70;57.95;;;18.50;99.90;;;;;;5156092;27;20099;-22
2023/09/12 08:11:22;;;;;;;136.75;53.83;;;18.60;99.90;;;;;;5157053;27;20038;-22
2023/09/12 08:13:51;;;;;;;133.13;52.83;;;18.70;99.90;;;;;;5157729;27;20047;-22
2023/09/12 08:16:16;;;;;;;158.07;57.30;;;18.70;99.90;;;;;;5157138;27;20050;-22
2023/09/12 08:18:42;;;;;;;135.27;53.65;;;18.70;99.90;;;;;;5157645;27;20124;-22
2023/09/12 08:21:08;;;;;;;129.57;51.22;;;18.80;99.90;;;;;;5156025;27;20468;-22
2023/09/12 08:23:34;;;;;;;124.78;50.10;;;18.90;99.90;;;;;;5138477;27;20078;-22
2023/09/12 08:26:00;;;;;;;117.75;51.90;;;18.90;99.90;;;;;;5155723;27;20099;-22
2023/09/12 08:28:25;;;;;;;127.35;52.08;;;19.00;99.90;;;;;;5156134;27;20042;-22
2023/09/12 08:30:52;;;;;;;109.40;50.50;;;19.10;99.90;;;;;;5155587;27;20078;-22
2023/09/12 08:33:17;;;;;;;111.10;50.25;;;19.20;99.90;;;;;;5157084;27;20042;-22
2023/09/12 08:35:43;;;;;;;101.90;47.20;;;19.30;99.90;;;;;;5156998;27;20525;-22
2023/09/12 08:38:09;;;;;;;115.78;50.38;;;19.20;99.90;;;;;;5156681;27;20112;-22
2023/09/12 08:40:35;;;;;;;106.82;50.50;;;19.30;99.90;;;;;;5156306;27;20045;-22
2023/09/12 08:43:03;;;;;;;104.63;48.85;;;19.20;99.90;;;;;;5156461;27;20106;-22
2023/09/12 08:45:29;;;;;;;108.80;48.88;;;19.20;99.90;;;;;;5138357;27;20452;-22
2023/09/12 08:47:58;;;;;;;102.60;48.97;;;19.10;99.90;;;;;;5156397;27;20043;-22
2023/09/12 08:50:25;;;;;;;107.90;50.60;;;19.30;99.90;;;;;;5156358;27;20129;-22
2023/09/12 08:52:51;;;;;;;105.38;51.70;;;19.40;99.90;;;;;;5157030;27;20159;-22
2023/09/12 08:55:18;;;;;;;94.43;48.97;;;19.50;99.90;;;;;;5155675;27;20103;-22
2023/09/12 08:57:45;;;;;;;91.78;47.20;;;19.50;99.90;;;;;;5155081;27;20047;-22
2023/09/12 09:00:14;;;;;;;87.03;46.42;;;19.60;99.90;;;;;;5156533;27;20039;-22
2023/09/12 09:02:42;;;;;;;84.75;45.42;;;19.80;99.90;;;;;;5156291;27;20050;-22
2023/09/12 09:05:09;;;;;;;77.00;45.60;;;20.10;99.90;;;;;;5156243;27;20059;-22
2023/09/12 09:07:40;;;;;;;71.18;43.45;;;20.20;99.90;;;;;;5155685;27;20043;-22
2023/09/12 09:10:09;;;;;;;74.95;43.47;;;20.40;99.90;;;;;;5155964;27;20535;-22
2023/09/12 09:12:39;;;;;;;65.78;39.28;;;20.50;99.90;;;;;;5155996;27;20047;-22
2023/09/12 09:15:21;;;;;;;59.85;37.78;;;20.60;99.90;;;;;;5155782;27;20043;-23
2023/09/12 09:17:48;;;;;;;64.63;37.73;;;20.60;99.90;;;;;;5155941;27;20042;-22
2023/09/12 09:20:27;;;;;;;65.25;35.25;;;20.60;99.90;;;;;;5120579;27;20610;-22
2023/09/12 09:23:05;;;;;;;52.63;34.90;;;20.70;99.90;;;;;;5156396;27;20043;-22
2023/09/12 09:25:32;;;;;;;55.50;36.63;;;20.70;99.90;;;;;;5155667;27;20054;-23
2023/09/12 09:27:58;;;;;;;60.53;37.75;;;20.70;99.90;;;;;;5155645;27;20079;-23
2023/09/12 09:30:43;;;;;;;49.70;35.25;;;20.70;99.90;;;;;;5155668;27;20081;-22
2023/09/12 09:33:10;;;;;;;59.10;38.67;;;20.90;99.90;;;;;;5156565;27;20078;-23
2023/09/12 09:35:36;;;;;;;52.78;36.28;;;20.90;99.90;;;;;;5154673;27;20050;-23
2023/09/12 09:38:06;;;;;;;53.97;36.50;;;21.00;99.90;;;;;;5155590;27;20035;-22
2023/09/12 09:40:33;;;;;;;55.55;37.05;;;21.10;99.90;;;;;;5155606;27;20043;-23
2023/09/12 09:42:59;;;;;;;55.13;37.95;;;21.30;99.90;;;;;;5155572;27;20086;-23
2023/09/12 09:45:26;;;;;;;48.70;35.13;;;21.30;99.90;;;;;;5154837;27;20047;-23
2023/09/12 09:47:52;;;;;;;51.88;35.60;;;21.50;99.90;;;;;;5154294;27;20050;-23
2023/09/12 09:50:18;;;;;;;50.08;34.53;;;21.90;99.90;;;;;;5155311;27;20049;-23
2023/09/12 09:52:44;;;;;;;47.60;32.17;;;22.00;99.90;;;;;;5154194;27;20046;-23
2023/09/12 09:55:18;;;;;;;86.22;42.58;;;22.00;99.90;;;;;;5120119;27;20078;-23
2023/09/12 09:57:43;;;;;;;51.88;34.95;;;22.20;99.90;;;;;;5137394;27;20058;-23
2023/09/12 10:00:14;;;;;;;46.85;34.08;;;22.60;99.90;;;;;;5156127;27;20050;-23
2023/09/12 10:02:42;;;;;;;85.50;43.60;;;22.90;99.90;;;;;;5155280;27;20051;-23
2023/09/12 10:05:10;;;;;;;51.17;35.20;;;23.20;99.90;;;;;;5155356;27;20050;-23
2023/09/12 10:07:38;;;;;;;45.75;31.85;;;23.20;99.90;;;;;;5155509;27;20425;-23
2023/09/12 10:10:04;;;;;;;45.08;34.00;;;22.90;99.90;;;;;;5159685;27;20045;-23
2023/09/12 10:12:34;;;;;;;39.90;30.38;;;22.60;99.90;;;;;;5159631;27;20042;-23
2023/09/12 10:15:01;;;;;;;43.20;32.30;;;22.50;99.90;;;;;;5158424;27;20062;-24
2023/09/12 10:17:36;;;;;;;45.60;28.45;;;22.40;99.90;;;;;;5158234;27;20050;-23
2023/09/12 10:20:09;;;;;;;40.30;29.10;;;22.60;99.90;;;;;;5159480;27;20039;-23
2023/09/12 10:22:43;;;;;;;42.00;29.27;;;22.70;99.90;;;;;;5159105;27;20388;-23
2023/09/12 10:25:11;;;;;;;43.85;30.50;;;22.90;99.90;;;;;;5158376;27;20050;-23
2023/09/12 10:27:37;;;;;;;36.97;28.38;;;23.30;99.90;;;;;;5159230;27;20070;-23
2023/09/12 10:30:04;;;;;;;36.83;25.67;;;23.30;99.90;;;;;;5158153;27;20047;-23
2023/09/12 10:32:32;;;;;;;36.83;25.95;;;23.60;99.90;;;;;;5159206;27;20391;-23
2023/09/12 10:34:59;;;;;;;37.00;28.58;;;23.60;99.90;;;;;;5159137;27;20035;-24
2023/09/12 10:37:26;;;;;;;36.35;23.40;;;23.80;99.90;;;;;;5159065;27;20159;-23
2023/09/12 10:39:57;;;;;;;34.80;26.77;;;23.70;99.90;;;;;;5159058;27;20042;-23
2023/09/12 10:42:25;;;;;;;32.75;22.98;;;23.80;99.90;;;;;;5158678;27;20486;-23
2023/09/12 10:44:54;;;;;;;30.73;23.65;;;23.70;99.90;;;;;;5158923;27;20504;-23
2023/09/12 10:47:20;;;;;;;37.50;26.80;;;23.80;99.90;;;;;;5157810;27;20054;-23
2023/09/12 10:49:46;;;;;;;38.13;27.05;;;23.90;99.90;;;;;;5158829;27;20053;-24
2023/09/12 10:52:27;;;;;;;33.33;26.13;;;24.10;99.90;;;;;;5123401;27;20042;-23
2023/09/12 10:54:53;;;;;;;35.20;25.95;;;24.10;18.80;;;;;;5140834;27;20058;-24
2023/09/12 10:57:19;;;;;;;27.27;23.10;;;24.30;99.90;;;;;;5159580;27;20061;-24
2023/09/12 11:00:10;;;;;;;30.35;20.92;;;24.50;99.90;;;;;;5140340;27;20054;-24
2023/09/12 11:02:45;;;;;;;34.58;26.00;;;24.40;99.90;;;;;;5158983;27;20050;-24
2023/09/12 11:05:36;;;;;;;35.42;22.95;;;24.40;1.00;;;;;;5159220;27;20046;-23
2023/09/12 11:08:05;;;;;;;22.23;18.40;;;24.30;1.00;;;;;;5159130;27;20481;-24
2023/09/12 11:10:32;;;;;;;23.88;16.77;;;24.40;27.30;;;;;;5157305;27;20486;-24
2023/09/12 11:12:58;;;;;;;21.42;15.70;;;24.60;1.00;;;;;;5158419;27;20125;-24
2023/09/12 11:15:26;;;;;;;25.23;18.42;;;24.80;99.90;;;;;;5158630;27;20480;-24
2023/09/12 11:18:05;;;;;;;24.15;16.85;;;24.70;99.90;;;;;;5158318;27;20053;-24
2023/09/12 11:21:00;;;;;;;22.73;17.02;;;24.70;99.90;;;;;;5156081;27;20043;-24
2023/09/12 11:23:26;;;;;;;23.63;16.33;;;24.50;78.90;;;;;;5157362;27;20409;-24
2023/09/12 11:26:06;;;;;;;20.40;15.73;;;25.00;99.90;;;;;;5158986;27;20043;-24
2023/09/12 11:28:33;;;;;;;21.80;17.25;;;25.60;99.90;;;;;;5158716;27;20054;-23
2023/09/12 11:30:58;;;;;;;21.33;16.65;;;26.10;1.00;;;;;;5157927;27;20031;-24
2023/09/12 11:33:26;;;;;;;19.27;14.70;;;26.20;1.00;;;;;;5157968;27;20092;-26
2023/09/12 11:35:57;;;;;;;16.17;13.73;;;26.70;1.00;;;;;;5158518;27;20052;-25
2023/09/12 11:38:30;;;;;;;13.30;11.02;;;26.70;99.90;;;;;;5157644;27;20472;-25
2023/09/12 11:40:57;;;;;;;15.45;12.18;;;26.30;1.00;;;;;;5157879;27;20043;-26
2023/09/12 11:43:25;;;;;;;15.77;11.85;;;26.20;99.90;;;;;;5158098;27;20383;-25
2023/09/12 11:45:52;;;;;;;15.10;9.13;;;26.10;99.90;;;;;;5158340;27;20088;-25
2023/09/12 11:48:19;;;;;;;15.40;10.02;;;26.00;1.00;;;;;;5156921;27;20085;-25
2023/09/12 11:50:53;;;;;;;13.02;10.40;;;25.90;99.90;;;;;;5158437;27;20446;-26
2023/09/12 11:53:25;;;;;;;16.48;10.63;;;25.80;99.90;;;;;;5156972;27;20051;-25
2023/09/12 11:55:54;;;;;;;19.10;12.90;;;25.60;1.00;;;;;;5156497;27;20464;-26
2023/09/12 11:58:21;;;;;;;14.88;12.40;;;25.30;99.90;;;;;;5138803;27;20054;-26
2023/09/12 12:00:51;;;;;;;11.68;8.00;;;24.70;99.90;;;;;;5156522;27;20050;-26
2023/09/12 12:03:19;;;;;;;10.55;7.55;;;23.70;1.00;;;;;;5157863;27;20464;-25
2023/09/12 12:05:46;;;;;;;14.50;7.22;;;23.10;99.90;;;;;;5157399;27;20050;-25
2023/09/12 12:08:12;;;;;;;9.57;6.88;;;22.70;1.00;;;;;;5156323;27;20041;-26
2023/09/12 12:10:39;;;;;;;8.18;5.75;;;22.40;1.00;;;;;;5157169;27;20034;-25
2023/09/12 12:13:06;;;;;;;9.50;5.88;;;22.20;99.90;;;;;;5157225;27;20066;-26
2023/09/12 12:15:32;;;;;;;8.80;6.22;;;22.30;1.00;;;;;;5157148;27;20046;-26
2023/09/12 12:17:58;;;;;;;9.80;7.53;;;22.60;1.00;;;;;;5157198;27;20519;-25
2023/09/12 12:20:24;;;;;;;12.65;8.60;;;23.30;1.00;;;;;;5157092;27;20081;-25
2023/09/12 12:22:52;;;;;;;12.05;9.00;;;24.00;99.90;;;;;;5155772;27;20046;-26